METAR Data
IDs: Format: Raw Decoded Include TAF

Data at: 0252 UTC 24 Jun 2021

METAR for:KIND (Indianapolis Intl, IN, US)
Text:KIND 240154Z 15007KT 10SM SCT140 SCT250 21/09 A3010 RMK AO2 SLP190 T02110094
Temperature: 21.1°C ( 70°F)
Dewpoint: 9.4°C ( 49°F) [RH = 47%]
Pressure (altimeter):30.10 inches Hg (1019.4 mb) [Sea level pressure: 1019.0 mb]
Winds:from the SSE (150 degrees) at 8 MPH (7 knots; 3.6 m/s)
Visibility:10 or more sm (16+ km)
Ceiling:at least 12,000 feet AGL
Clouds: scattered clouds at 14000 feet AGL, scattered clouds at 25000 feet AGL